createdAt,value
2022-10-13T00:01:34.010Z,6.73
2022-10-13T00:04:02.398Z,6.13
2022-10-13T00:06:31.641Z,5.87
2022-10-13T00:09:01.414Z,6.27
2022-10-13T00:11:31.897Z,6.57
2022-10-13T00:14:04.013Z,6.40
2022-10-13T00:16:35.434Z,7.10
2022-10-13T00:19:04.009Z,6.40
2022-10-13T00:21:32.483Z,6.40
2022-10-13T00:24:02.562Z,6.77
2022-10-13T00:26:31.092Z,7.23
2022-10-13T00:28:59.770Z,6.87
2022-10-13T00:31:31.650Z,6.50
2022-10-13T00:34:02.791Z,6.40
2022-10-13T00:36:32.381Z,7.10
2022-10-13T00:39:02.139Z,6.23
2022-10-13T00:41:30.559Z,7.10
2022-10-13T00:44:02.975Z,6.83
2022-10-13T00:46:34.777Z,7.20
2022-10-13T00:49:10.512Z,7.13
2022-10-13T00:51:45.619Z,7.07
2022-10-13T00:54:21.432Z,7.30
2022-10-13T00:56:52.288Z,6.47
2022-10-13T00:59:27.297Z,6.63
2022-10-13T01:01:57.391Z,7.23
2022-10-13T01:04:32.843Z,7.50
2022-10-13T01:07:02.831Z,6.80
2022-10-13T01:09:37.601Z,6.93
2022-10-13T01:12:18.980Z,7.40
2022-10-13T01:14:55.638Z,7.77
2022-10-13T01:17:35.521Z,7.30
2022-10-13T01:20:50.587Z,7.17
2022-10-13T01:24:03.146Z,6.43
2022-10-13T01:27:00.648Z,6.90
2022-10-13T01:30:08.441Z,6.93
2022-10-13T01:33:03.197Z,6.87
2022-10-13T01:35:48.747Z,7.67
2022-10-13T01:38:30.641Z,7.47
2022-10-13T01:41:11.029Z,6.97
2022-10-13T01:43:44.239Z,6.93
2022-10-13T01:46:19.241Z,7.47
2022-10-13T01:48:47.677Z,7.77
2022-10-13T01:51:22.420Z,7.13
2022-10-13T01:53:54.577Z,8.27
2022-10-13T01:56:23.781Z,7.57
2022-10-13T01:58:56.237Z,7.43
2022-10-13T02:02:00.140Z,8.20
2022-10-13T02:04:49.102Z,8.40
2022-10-13T02:07:25.118Z,7.70
2022-10-13T02:10:03.371Z,7.53
2022-10-13T02:12:38.266Z,7.63
2022-10-13T02:15:13.221Z,7.83
2022-10-13T02:17:43.828Z,8.30
2022-10-13T02:20:12.638Z,8.13
2022-10-13T02:22:46.926Z,7.33
2022-10-13T02:25:16.130Z,7.53
2022-10-13T02:27:44.720Z,7.80
2022-10-13T02:30:23.705Z,9.20
2022-10-13T02:32:54.479Z,8.20
2022-10-13T02:35:23.239Z,8.20
2022-10-13T02:37:51.727Z,8.50
2022-10-13T02:40:20.251Z,9.20
2022-10-13T02:42:49.207Z,9.07
2022-10-13T02:45:18.536Z,9.80
2022-10-13T02:47:47.519Z,9.37
2022-10-13T02:50:17.943Z,10.73
2022-10-13T02:52:46.452Z,10.27
2022-10-13T02:55:14.934Z,11.07
2022-10-13T02:57:45.670Z,11.00
2022-10-13T03:00:16.364Z,10.90
2022-10-13T03:02:45.032Z,10.83
2022-10-13T03:05:13.555Z,11.77
2022-10-13T03:07:43.485Z,12.07
2022-10-13T03:10:12.210Z,11.67
2022-10-13T03:12:40.637Z,11.50
2022-10-13T03:15:10.509Z,12.27
2022-10-13T03:17:39.429Z,11.80
2022-10-13T03:20:10.157Z,12.40
2022-10-13T03:22:39.171Z,13.40
2022-10-13T03:25:09.657Z,13.27
2022-10-13T03:27:38.315Z,15.03
2022-10-13T03:30:09.178Z,15.80
2022-10-13T03:32:40.866Z,13.27
2022-10-13T03:35:10.243Z,13.87
2022-10-13T03:37:39.582Z,13.10
2022-10-13T03:40:11.461Z,13.57
2022-10-13T03:42:40.244Z,12.33
2022-10-13T03:45:10.670Z,12.87
2022-10-13T03:47:39.484Z,11.73
2022-10-13T03:50:09.597Z,13.47
2022-10-13T03:52:38.122Z,12.23
2022-10-13T03:55:09.239Z,12.30
2022-10-13T03:57:37.656Z,12.20
2022-10-13T04:00:10.609Z,12.60
2022-10-13T04:02:41.040Z,12.90
2022-10-13T04:05:10.556Z,13.20
2022-10-13T04:07:39.546Z,13.43
2022-10-13T04:10:21.233Z,12.73
2022-10-13T04:12:50.978Z,15.30
2022-10-13T04:15:19.640Z,12.73
2022-10-13T04:17:48.177Z,14.17
2022-10-13T04:20:17.249Z,12.97
2022-10-13T04:22:46.071Z,12.83
2022-10-13T04:25:14.552Z,13.73
2022-10-13T04:27:44.298Z,13.50
2022-10-13T04:30:14.060Z,14.13
2022-10-13T04:32:42.491Z,14.63
2022-10-13T04:35:13.213Z,14.87
2022-10-13T04:37:45.071Z,14.70
2022-10-13T04:40:14.962Z,15.73
2022-10-13T04:42:44.814Z,14.23
2022-10-13T04:45:13.219Z,13.90
2022-10-13T04:47:43.275Z,14.60
2022-10-13T04:50:12.872Z,15.10
2022-10-13T04:52:41.725Z,13.67
2022-10-13T04:55:10.691Z,13.97
2022-10-13T04:57:39.354Z,14.53
2022-10-13T05:00:11.120Z,15.23
2022-10-13T05:02:39.833Z,14.77
2022-10-13T05:05:10.048Z,15.23
2022-10-13T05:07:39.280Z,15.20
2022-10-13T05:10:08.774Z,15.47
2022-10-13T05:12:37.671Z,14.80
2022-10-13T05:15:07.409Z,14.20
2022-10-13T05:17:37.152Z,13.83
2022-10-13T05:20:12.257Z,14.40
2022-10-13T05:22:40.655Z,14.70
2022-10-13T05:25:09.929Z,14.87
2022-10-13T05:27:38.868Z,15.83
2022-10-13T05:30:12.775Z,14.30
2022-10-13T05:32:43.082Z,13.70
2022-10-13T05:35:11.744Z,14.73
2022-10-13T05:37:42.111Z,13.30
2022-10-13T05:40:12.430Z,13.87
2022-10-13T05:42:40.817Z,13.20
2022-10-13T05:45:13.809Z,13.30
2022-10-13T05:47:43.633Z,13.27
2022-10-13T05:50:12.108Z,13.27
2022-10-13T05:52:44.263Z,12.53
2022-10-13T05:55:18.198Z,13.33
2022-10-13T05:57:51.410Z,13.57
2022-10-13T06:00:21.881Z,13.23
2022-10-13T06:02:58.231Z,13.93
2022-10-13T06:05:28.901Z,13.53
2022-10-13T06:07:58.137Z,13.77
2022-10-13T06:10:27.717Z,13.30
2022-10-13T06:12:56.189Z,12.50
2022-10-13T06:15:28.192Z,12.40
2022-10-13T06:17:59.627Z,12.30
2022-10-13T06:20:28.828Z,13.87
2022-10-13T06:22:57.763Z,13.83
2022-10-13T06:25:27.069Z,13.07
2022-10-13T06:27:55.573Z,11.80
2022-10-13T06:30:24.999Z,13.47
2022-10-13T06:32:55.173Z,12.10
2022-10-13T06:35:25.257Z,12.27
2022-10-13T06:37:53.747Z,11.67
2022-10-13T06:40:22.138Z,11.67
2022-10-13T06:42:51.848Z,12.23
2022-10-13T06:45:23.969Z,12.43
2022-10-13T06:47:54.695Z,11.40
2022-10-13T06:50:25.082Z,11.10
2022-10-13T06:52:56.477Z,12.20
2022-10-13T06:55:25.445Z,11.93
2022-10-13T06:57:53.865Z,10.70
2022-10-13T07:00:23.235Z,11.07
2022-10-13T07:02:53.230Z,11.47
2022-10-13T07:05:21.873Z,11.37
2022-10-13T07:07:53.951Z,11.50
2022-10-13T07:10:23.363Z,9.80
2022-10-13T07:12:51.802Z,10.17
2022-10-13T07:15:20.602Z,9.57
2022-10-13T07:17:53.745Z,9.20
2022-10-13T07:20:22.939Z,9.77
2022-10-13T07:22:54.629Z,10.20
2022-10-13T07:25:23.661Z,9.37
2022-10-13T07:27:52.152Z,9.97
2022-10-13T07:30:20.883Z,9.63
2022-10-13T07:32:50.161Z,8.73
2022-10-13T07:35:19.848Z,8.53
2022-10-13T07:37:49.327Z,7.97
2022-10-13T07:40:19.618Z,8.73
2022-10-13T07:42:48.072Z,9.33
2022-10-13T07:45:16.909Z,8.97
2022-10-13T07:47:45.327Z,8.87
2022-10-13T07:50:13.881Z,10.40
2022-10-13T07:52:43.249Z,10.03
2022-10-13T07:55:13.900Z,8.80
2022-10-13T07:57:43.814Z,9.27
2022-10-13T08:00:13.620Z,9.33
2022-10-13T08:02:42.621Z,9.10
2022-10-13T08:05:11.099Z,9.17
2022-10-13T08:07:39.522Z,9.20
2022-10-13T08:10:11.512Z,9.30
2022-10-13T08:12:40.273Z,9.40
2022-10-13T08:15:12.225Z,8.80
2022-10-13T08:17:41.161Z,9.33
2022-10-13T08:20:10.796Z,10.20
2022-10-13T08:22:40.112Z,9.33
2022-10-13T08:25:10.351Z,10.27
2022-10-13T08:27:50.651Z,9.50
2022-10-13T08:30:21.770Z,8.47
2022-10-13T08:32:50.427Z,9.03
2022-10-13T08:35:19.385Z,8.60
2022-10-13T08:37:47.784Z,8.70
2022-10-13T08:40:23.280Z,8.47
2022-10-13T08:42:55.582Z,8.87
2022-10-13T08:45:47.426Z,8.60
2022-10-13T08:48:20.528Z,8.37
2022-10-13T08:50:55.985Z,9.40
2022-10-13T08:53:29.529Z,8.47
2022-10-13T08:56:06.051Z,8.63
2022-10-13T08:58:38.752Z,8.77
2022-10-13T09:01:16.606Z,8.20
2022-10-13T09:03:55.156Z,8.77
2022-10-13T09:06:28.663Z,8.17
2022-10-13T09:09:00.223Z,7.57
2022-10-13T09:11:33.550Z,8.50
2022-10-13T09:14:06.051Z,7.90
2022-10-13T09:16:40.448Z,7.97
2022-10-13T09:19:20.376Z,7.90
2022-10-13T09:21:49.702Z,8.37
2022-10-13T09:24:22.131Z,7.83
2022-10-13T09:27:03.271Z,6.53
2022-10-13T09:29:34.454Z,9.23
2022-10-13T09:32:18.176Z,6.50
2022-10-13T09:34:47.706Z,7.43
2022-10-13T09:37:23.451Z,6.53
2022-10-13T09:40:07.641Z,6.30
2022-10-13T09:42:36.103Z,6.13
2022-10-13T09:45:17.523Z,5.87
2022-10-13T09:47:57.559Z,4.93
2022-10-13T09:50:29.556Z,5.13
2022-10-13T09:53:26.975Z,5.27
2022-10-13T09:56:15.335Z,5.27
2022-10-13T09:58:51.626Z,4.70
2022-10-13T10:01:27.296Z,4.80
2022-10-13T10:03:59.173Z,4.63
2022-10-13T10:06:28.163Z,4.83
2022-10-13T10:09:06.430Z,4.00
2022-10-13T10:11:42.266Z,4.33
2022-10-13T10:14:22.354Z,3.93
2022-10-13T10:17:01.806Z,4.80
2022-10-13T10:19:48.771Z,4.37
2022-10-13T10:22:31.664Z,4.07
2022-10-13T10:25:15.763Z,4.97
2022-10-13T10:27:57.870Z,4.30
2022-10-13T10:30:28.830Z,4.10
2022-10-13T10:33:05.792Z,4.10
2022-10-13T10:35:45.085Z,4.10
2022-10-13T10:38:32.833Z,4.27
2022-10-13T10:41:14.382Z,3.93
2022-10-13T10:43:53.075Z,3.93
2022-10-13T10:46:25.368Z,4.57
2022-10-13T10:49:00.511Z,3.93
2022-10-13T10:51:36.599Z,4.03
2022-10-13T10:54:24.370Z,3.67
2022-10-13T10:56:59.386Z,4.10
2022-10-13T10:59:52.529Z,3.77
2022-10-13T11:02:48.059Z,3.53
2022-10-13T11:05:17.819Z,3.60
2022-10-13T11:08:01.272Z,3.40
2022-10-13T11:10:30.975Z,3.60
2022-10-13T11:13:25.721Z,4.10
2022-10-13T11:15:55.599Z,3.60
2022-10-13T11:19:05.544Z,4.00
2022-10-13T11:22:24.459Z,3.80
2022-10-13T11:25:40.351Z,3.93
2022-10-13T11:28:46.610Z,3.83
2022-10-13T11:31:48.011Z,3.40
2022-10-13T11:34:32.476Z,3.63
2022-10-13T11:37:03.285Z,3.90
2022-10-13T11:40:05.677Z,3.50
2022-10-13T11:43:04.982Z,3.40
2022-10-13T11:46:04.575Z,4.00
2022-10-13T11:49:29.225Z,3.93
2022-10-13T11:52:19.877Z,3.90
2022-10-13T11:54:56.651Z,3.40
2022-10-13T11:57:28.310Z,3.67
2022-10-13T11:59:58.465Z,3.37
2022-10-13T12:02:50.401Z,3.70
2022-10-13T12:05:25.521Z,4.23
2022-10-13T12:08:00.175Z,3.70
2022-10-13T12:10:35.709Z,3.20
2022-10-13T12:13:05.906Z,3.90
2022-10-13T12:15:38.409Z,3.87
2022-10-13T12:18:24.871Z,3.30
2022-10-13T12:20:56.180Z,3.93
2022-10-13T12:23:25.456Z,4.00
2022-10-13T12:25:58.348Z,3.27
2022-10-13T12:28:30.949Z,3.20
2022-10-13T12:31:01.874Z,3.57
2022-10-13T12:33:35.266Z,3.50
2022-10-13T12:36:17.930Z,3.80
2022-10-13T12:38:51.570Z,3.70
2022-10-13T12:41:27.818Z,3.30
2022-10-13T12:43:59.983Z,3.50
2022-10-13T12:46:45.223Z,3.30
2022-10-13T12:51:59.260Z,3.27
2022-10-13T12:54:31.386Z,3.17
2022-10-13T12:57:02.971Z,2.80
2022-10-13T12:59:33.380Z,3.27
2022-10-13T13:02:15.169Z,3.40
2022-10-13T13:04:44.924Z,3.37
2022-10-13T13:07:33.629Z,3.40
2022-10-13T13:10:19.243Z,3.20
2022-10-13T13:12:49.161Z,3.47
2022-10-13T13:15:36.937Z,3.80
2022-10-13T13:18:36.629Z,3.57
2022-10-13T13:21:07.484Z,2.93
2022-10-13T13:23:36.156Z,3.47
2022-10-13T13:26:14.106Z,3.10
2022-10-13T13:28:47.646Z,4.20
2022-10-13T13:31:18.150Z,4.07
2022-10-13T13:33:48.639Z,3.40
2022-10-13T13:36:21.251Z,3.67
2022-10-13T13:38:54.017Z,3.23
2022-10-13T13:41:23.970Z,3.30
2022-10-13T13:43:52.365Z,3.33
2022-10-13T13:46:25.351Z,3.23
2022-10-13T13:48:55.143Z,3.23
2022-10-13T13:51:23.666Z,3.07
2022-10-13T13:53:52.058Z,3.00
2022-10-13T13:56:22.649Z,3.20
2022-10-13T13:58:51.178Z,3.03
2022-10-13T14:01:19.947Z,3.20
2022-10-13T14:03:48.966Z,3.10
2022-10-13T14:06:22.856Z,3.23
2022-10-13T14:08:52.177Z,3.60
2022-10-13T14:11:20.726Z,3.50
2022-10-13T14:13:49.788Z,3.47
2022-10-13T14:16:25.775Z,3.30
2022-10-13T14:18:55.571Z,3.73
2022-10-13T14:21:27.525Z,3.60
2022-10-13T14:23:59.240Z,3.03
2022-10-13T14:26:27.827Z,3.10
2022-10-13T14:28:57.053Z,3.00
2022-10-13T14:31:25.855Z,3.50
2022-10-13T14:33:54.689Z,2.60
2022-10-13T14:36:27.279Z,2.70
2022-10-13T14:38:55.814Z,3.07
2022-10-13T14:41:24.305Z,2.60
2022-10-13T14:43:55.167Z,3.10
2022-10-13T14:46:24.779Z,2.70
2022-10-13T14:48:53.793Z,2.60
2022-10-13T14:51:22.240Z,3.07
2022-10-13T14:53:52.112Z,3.10
2022-10-13T14:56:23.474Z,2.67
2022-10-13T14:58:56.045Z,3.47
2022-10-13T15:01:26.069Z,3.43
2022-10-13T15:03:54.640Z,3.30
2022-10-13T15:06:26.439Z,3.20
2022-10-13T15:08:56.728Z,3.13
2022-10-13T15:11:26.790Z,2.90
2022-10-13T15:13:56.249Z,2.80
2022-10-13T15:16:28.588Z,3.00
2022-10-13T15:18:57.742Z,3.40
2022-10-13T15:21:26.634Z,3.53
2022-10-13T15:23:57.550Z,2.50
2022-10-13T15:26:26.071Z,3.47
2022-10-13T15:28:55.358Z,3.40
2022-10-13T15:31:24.934Z,3.17
2022-10-13T15:33:55.036Z,3.60
2022-10-13T15:36:26.035Z,3.90
2022-10-13T15:38:55.831Z,3.50
2022-10-13T15:41:25.496Z,3.90
2022-10-13T15:43:54.489Z,4.10
2022-10-13T15:46:24.147Z,4.00
2022-10-13T15:48:55.244Z,4.30
2022-10-13T15:51:26.754Z,4.83
2022-10-13T15:53:56.641Z,4.23
2022-10-13T15:56:25.653Z,4.43
2022-10-13T15:58:54.051Z,4.60
2022-10-13T16:01:22.522Z,5.30
2022-10-13T16:03:55.380Z,4.47
2022-10-13T16:06:24.787Z,4.97
2022-10-13T16:08:55.713Z,4.83
2022-10-13T16:11:25.894Z,4.97
2022-10-13T16:13:54.468Z,4.67
2022-10-13T16:16:23.199Z,5.03
2022-10-13T16:18:51.828Z,4.33
2022-10-13T16:21:23.337Z,5.13
2022-10-13T16:23:52.618Z,4.30
2022-10-13T16:26:22.894Z,5.30
2022-10-13T16:28:56.671Z,4.77
2022-10-13T16:31:26.193Z,5.90
2022-10-13T16:33:55.741Z,5.33
2022-10-13T16:36:25.289Z,4.93
2022-10-13T16:38:55.658Z,4.53
2022-10-13T16:41:25.829Z,5.43
2022-10-13T16:43:54.609Z,6.07
2022-10-13T16:46:23.492Z,11.77
2022-10-13T16:48:52.154Z,11.63
2022-10-13T16:51:23.839Z,11.27
2022-10-13T16:53:56.724Z,8.67
2022-10-13T16:56:30.320Z,8.87
2022-10-13T16:59:01.612Z,8.10
2022-10-13T17:01:32.717Z,7.40
2022-10-13T17:04:02.316Z,6.13
2022-10-13T17:06:31.346Z,5.57
2022-10-13T17:09:02.885Z,5.10
2022-10-13T17:11:35.472Z,5.57
2022-10-13T17:14:07.231Z,5.57
2022-10-13T17:16:35.931Z,5.40
2022-10-13T17:19:05.022Z,5.63
2022-10-13T17:21:37.896Z,5.00
2022-10-13T17:24:09.654Z,5.63
2022-10-13T17:26:40.172Z,5.70
2022-10-13T17:29:09.106Z,5.90
2022-10-13T17:31:37.812Z,6.00
2022-10-13T17:34:06.619Z,5.33
2022-10-13T17:36:35.008Z,5.80
2022-10-13T17:39:13.596Z,5.37
2022-10-13T17:41:43.632Z,5.50
2022-10-13T17:44:12.239Z,6.90
2022-10-13T17:46:40.902Z,8.07
2022-10-13T17:49:13.360Z,12.20
2022-10-13T17:51:43.656Z,7.77
2022-10-13T17:54:16.324Z,14.03
2022-10-13T17:56:47.391Z,8.83
2022-10-13T17:59:17.840Z,15.57
2022-10-13T18:01:46.897Z,17.33
2022-10-13T18:04:19.048Z,18.03
2022-10-13T18:06:48.521Z,9.53
2022-10-13T18:09:19.588Z,7.23
2022-10-13T18:11:51.577Z,7.03
2022-10-13T18:14:20.903Z,7.20
2022-10-13T18:16:51.319Z,7.53
2022-10-13T18:19:21.177Z,8.07
2022-10-13T18:21:52.739Z,6.83
2022-10-13T18:24:21.849Z,7.07
2022-10-13T18:26:52.313Z,7.17
2022-10-13T18:29:20.910Z,7.00
2022-10-13T18:31:49.885Z,6.73
2022-10-13T18:34:19.339Z,7.00
2022-10-13T18:36:51.232Z,7.57
2022-10-13T18:39:22.568Z,8.90
2022-10-13T18:41:54.289Z,8.00
2022-10-13T18:44:24.956Z,7.77
2022-10-13T18:46:56.382Z,8.13
2022-10-13T18:49:30.921Z,9.70
2022-10-13T18:52:01.603Z,7.90
2022-10-13T18:54:31.573Z,7.63
2022-10-13T18:57:01.724Z,8.50
2022-10-13T18:59:30.560Z,8.07
2022-10-13T19:01:59.556Z,8.30
2022-10-13T19:04:28.447Z,7.20
2022-10-13T19:06:57.290Z,7.63
2022-10-13T19:09:26.346Z,7.70
2022-10-13T19:11:57.111Z,8.33
2022-10-13T19:14:27.502Z,8.13
2022-10-13T19:17:00.841Z,8.13
2022-10-13T19:19:32.121Z,7.37
2022-10-13T19:22:02.672Z,7.50
2022-10-13T19:24:31.323Z,7.37
2022-10-13T19:26:59.752Z,7.73
2022-10-13T19:29:30.445Z,8.13
2022-10-13T19:31:59.605Z,7.80
2022-10-13T19:34:28.553Z,7.83
2022-10-13T19:37:00.014Z,7.50
2022-10-13T19:39:30.005Z,8.00
2022-10-13T19:41:59.741Z,8.63
2022-10-13T19:44:29.981Z,8.37
2022-10-13T19:46:58.914Z,8.07
2022-10-13T19:49:27.366Z,8.40
2022-10-13T19:51:56.428Z,8.30
2022-10-13T19:54:30.144Z,8.03
2022-10-13T19:57:01.646Z,8.43
2022-10-13T19:59:31.558Z,8.47
2022-10-13T20:02:00.089Z,7.53
2022-10-13T20:04:29.000Z,9.10
2022-10-13T20:06:57.463Z,8.43
2022-10-13T20:09:25.908Z,8.77
2022-10-13T20:11:54.757Z,8.30
2022-10-13T20:14:23.693Z,8.40
2022-10-13T20:16:53.464Z,7.97
2022-10-13T20:19:22.170Z,8.87
2022-10-13T20:21:51.630Z,7.77
2022-10-13T20:24:21.586Z,8.37
2022-10-13T20:26:50.116Z,7.87
2022-10-13T20:29:23.727Z,8.37
2022-10-13T20:31:53.466Z,8.17
2022-10-13T20:34:21.929Z,8.43
2022-10-13T20:36:51.260Z,9.90
2022-10-13T20:39:20.767Z,8.53
2022-10-13T20:41:49.726Z,8.37
2022-10-13T20:44:19.507Z,9.07
2022-10-13T20:46:48.763Z,8.63
2022-10-13T20:49:19.195Z,8.83
2022-10-13T20:51:48.042Z,8.67
2022-10-13T20:54:17.472Z,7.87
2022-10-13T20:56:47.157Z,8.20
2022-10-13T20:59:15.747Z,8.67
2022-10-13T21:01:44.486Z,11.67
2022-10-13T21:04:12.884Z,9.63
2022-10-13T21:06:43.722Z,9.70
2022-10-13T21:09:12.566Z,9.17
2022-10-13T21:11:43.995Z,9.00
2022-10-13T21:14:12.810Z,8.43
2022-10-13T21:16:41.593Z,8.83
2022-10-13T21:19:11.043Z,9.03
2022-10-13T21:21:39.563Z,9.13
2022-10-13T21:24:11.643Z,9.77
2022-10-13T21:26:41.725Z,8.80
2022-10-13T21:29:15.214Z,9.70
2022-10-13T21:31:43.666Z,9.13
2022-10-13T21:34:13.218Z,9.17
2022-10-13T21:36:44.389Z,9.20
2022-10-13T21:39:16.412Z,9.87
2022-10-13T21:41:44.991Z,9.90
2022-10-13T21:44:14.802Z,10.10
2022-10-13T21:46:43.607Z,10.00
2022-10-13T21:49:12.055Z,9.80
2022-10-13T21:51:41.698Z,9.73
2022-10-13T21:54:13.039Z,9.63
2022-10-13T21:56:43.619Z,9.57
2022-10-13T21:59:13.567Z,10.50
2022-10-13T22:01:43.282Z,8.63
2022-10-13T22:04:15.492Z,9.63
2022-10-13T22:06:45.256Z,9.80
2022-10-13T22:09:14.830Z,9.93
2022-10-13T22:11:45.281Z,9.47
2022-10-13T22:14:14.442Z,9.97
2022-10-13T22:16:46.517Z,10.23
2022-10-13T22:19:16.448Z,10.97
2022-10-13T22:21:47.498Z,10.00
2022-10-13T22:24:20.072Z,9.80
2022-10-13T22:26:51.487Z,9.77
2022-10-13T22:29:22.623Z,10.23
2022-10-13T22:31:52.712Z,9.77
2022-10-13T22:34:21.355Z,9.20
2022-10-13T22:36:50.219Z,9.90
2022-10-13T22:39:19.203Z,9.43
2022-10-13T22:41:47.971Z,8.97
2022-10-13T22:44:17.989Z,9.93
2022-10-13T22:46:46.408Z,9.20
2022-10-13T22:49:14.951Z,8.80
2022-10-13T22:51:43.405Z,9.27
2022-10-13T22:54:12.409Z,8.97
2022-10-13T22:56:43.114Z,9.53
2022-10-13T22:59:13.773Z,9.23
2022-10-13T23:01:46.679Z,8.90
2022-10-13T23:04:15.083Z,8.93
2022-10-13T23:06:43.824Z,9.17
2022-10-13T23:09:14.609Z,9.43
2022-10-13T23:11:43.023Z,9.37
2022-10-13T23:14:16.501Z,8.97
2022-10-13T23:16:46.409Z,9.63
2022-10-13T23:19:15.153Z,8.97
2022-10-13T23:21:43.589Z,10.13
2022-10-13T23:24:12.477Z,10.10
2022-10-13T23:26:40.945Z,9.83
2022-10-13T23:29:10.919Z,9.77
2022-10-13T23:31:39.767Z,8.90
2022-10-13T23:34:10.865Z,9.70
2022-10-13T23:36:39.490Z,9.40
2022-10-13T23:39:08.221Z,8.97
2022-10-13T23:41:36.987Z,10.00
2022-10-13T23:44:06.056Z,9.10
2022-10-13T23:46:34.463Z,10.10
2022-10-13T23:49:02.943Z,10.43
2022-10-13T23:51:33.618Z,11.83
2022-10-13T23:54:02.030Z,10.03
2022-10-13T23:56:30.439Z,9.67
2022-10-13T23:59:01.492Z,9.50
